Time;durP1;ratioP1;P1;durP2;ratioP2;P2;SDS_P1;SDS_P2;PMS_P1;PMS_P2;Temp;Humidity;BMP_temperature;BMP_pressure;BME280_temperature;BME280_humidity;BME280_pressure;Samples;Min_cycle;Max_cycle;Signal;HPM_P1;HPM_P2
2023/03/08 00:01:25;;;;;;;12.73;3.80;;;;;;;0.38;100.00;99618.19;6295418;28;20044;-76
2023/03/08 00:04:26;;;;;;;5.10;2.80;;;;;;;0.43;100.00;99631.81;6290065;28;20040;-76
2023/03/08 00:07:27;;;;;;;5.13;3.15;;;;;;;0.45;100.00;99630.00;6278508;28;20049;-76
2023/03/08 00:10:29;;;;;;;5.45;2.95;;;;;;;0.34;100.00;99637.25;6298914;28;20053;-76
2023/03/08 00:13:30;;;;;;;4.47;2.85;;;;;;;0.45;100.00;99635.19;6300970;28;20056;-76
2023/03/08 00:16:33;;;;;;;10.98;3.25;;;;;;;0.45;100.00;99637.78;6300599;28;20055;-76
2023/03/08 00:19:34;;;;;;;5.88;3.72;;;;;;;0.48;100.00;99638.53;6300705;28;20048;-76
2023/03/08 00:22:36;;;;;;;10.70;4.15;;;;;;;0.49;100.00;99645.38;6292629;28;20048;-76
2023/03/08 00:25:37;;;;;;;4.22;2.42;;;;;;;0.46;100.00;99644.66;6285092;28;20051;-76
2023/03/08 00:28:39;;;;;;;6.53;2.72;;;;;;;0.50;100.00;99644.50;6284847;28;20055;-76
2023/03/08 00:31:41;;;;;;;9.68;3.65;;;;;;;0.42;100.00;99645.63;6293206;28;20459;-76
2023/03/08 00:34:45;;;;;;;6.50;3.50;;;;;;;0.40;100.00;99647.41;6300051;28;20055;-76
2023/03/08 00:37:47;;;;;;;6.78;3.17;;;;;;;0.37;100.00;99643.19;6291684;28;20049;-76
2023/03/08 00:40:48;;;;;;;5.72;2.90;;;;;;;0.35;100.00;99636.34;6292471;28;20052;-76
2023/03/08 00:43:50;;;;;;;6.05;3.15;;;;;;;0.42;100.00;99648.22;6300267;28;20052;-76
2023/03/08 00:46:52;;;;;;;6.03;3.20;;;;;;;0.42;100.00;99650.81;6299929;28;20770;-76
2023/03/08 00:49:54;;;;;;;5.47;3.47;;;;;;;0.38;100.00;99649.19;6300147;28;20071;-76
2023/03/08 00:52:55;;;;;;;3.35;2.22;;;;;;;0.46;100.00;99650.66;6300163;28;20052;-76
2023/03/08 00:55:58;;;;;;;7.22;3.05;;;;;;;0.46;100.00;99655.84;6281866;28;20076;-76
2023/03/08 00:58:59;;;;;;;5.82;4.00;;;;;;;0.42;100.00;99658.56;6283132;28;20051;-76
2023/03/08 01:02:02;;;;;;;4.68;3.50;;;;;;;0.44;100.00;99655.00;6289627;28;20048;-76
2023/03/08 01:05:04;;;;;;;4.65;2.97;;;;;;;0.35;100.00;99650.13;6294205;28;20041;-76
2023/03/08 01:08:05;;;;;;;5.63;2.85;;;;;;;0.33;100.00;99659.66;6299384;28;20063;-76
2023/03/08 01:11:07;;;;;;;4.07;2.65;;;;;;;0.28;100.00;99655.53;6297117;28;20044;-76
2023/03/08 01:14:08;;;;;;;5.00;2.95;;;;;;;0.22;100.00;99656.53;6274868;28;20052;-76
2023/03/08 01:17:11;;;;;;;3.83;2.20;;;;;;;0.24;100.00;99652.19;6275091;28;20067;-76
2023/03/08 01:20:13;;;;;;;2.45;2.20;;;;;;;0.10;100.00;99649.16;6278729;28;20044;-76
2023/03/08 01:23:14;;;;;;;11.68;2.83;;;;;;;0.02;100.00;99640.75;6299899;28;20449;-76
2023/03/08 01:26:18;;;;;;;6.85;3.55;;;;;;;0.17;100.00;99637.72;6295271;28;20041;-76
2023/03/08 01:29:19;;;;;;;8.00;3.05;;;;;;;0.20;100.00;99637.66;6285637;28;20062;-76
2023/03/08 01:32:22;;;;;;;6.57;3.55;;;;;;;0.22;100.00;99634.13;6299738;28;20437;-76
2023/03/08 01:35:23;;;;;;;4.05;2.72;;;;;;;0.20;100.00;99630.75;6299742;28;20051;-76
2023/03/08 01:38:25;;;;;;;4.90;3.38;;;;;;;0.20;100.00;99632.50;6277332;28;20044;-76
2023/03/08 01:41:29;;;;;;;6.70;2.85;;;;;;;0.19;100.00;99623.06;6288763;28;20052;-76
2023/03/08 01:44:49;;;;;;;4.78;2.60;;;;;;;0.12;100.00;99624.94;6299594;28;20052;-76
2023/03/08 01:47:52;;;;;;;4.72;2.40;;;;;;;0.17;100.00;99617.91;6276055;28;20053;-76
2023/03/08 01:50:53;;;;;;;3.25;2.45;;;;;;;0.16;100.00;99616.22;6283493;28;20444;-76
2023/03/08 01:53:55;;;;;;;4.70;3.03;;;;;;;0.19;100.00;99620.47;6287813;28;20433;-76
2023/03/08 01:57:01;;;;;;;3.78;2.85;;;;;;;0.18;100.00;99629.97;6282685;28;20357;-76
2023/03/08 02:00:05;;;;;;;2.85;1.98;;;;;;;0.23;100.00;99622.91;6274486;28;20045;-76
2023/03/08 02:03:10;;;;;;;9.70;3.22;;;;;;;0.29;100.00;99608.97;6294108;28;20051;-76
2023/03/08 02:06:13;;;;;;;2.03;1.88;;;;;;;0.29;100.00;99606.38;6298994;28;20041;-76
2023/03/08 02:09:15;;;;;;;4.70;2.10;;;;;;;0.28;100.00;99602.13;6299172;28;20045;-76
2023/03/08 02:12:17;;;;;;;6.57;2.55;;;;;;;0.20;100.00;99606.66;6299183;28;20056;-77
2023/03/08 02:15:20;;;;;;;5.47;2.30;;;;;;;0.27;100.00;99608.16;6283100;28;20041;-76
2023/03/08 02:18:23;;;;;;;3.45;2.47;;;;;;;0.31;100.00;99599.41;6282323;28;20049;-76
2023/03/08 02:21:26;;;;;;;2.22;1.75;;;;;;;0.44;100.00;99605.91;6283996;28;20321;-76
2023/03/08 02:24:28;;;;;;;12.82;2.28;;;;;;;0.38;100.00;99605.25;6281037;28;20041;-76
2023/03/08 02:27:29;;;;;;;5.00;2.05;;;;;;;0.40;100.00;99606.06;6286694;28;20048;-76
2023/03/08 02:30:34;;;;;;;3.83;1.90;;;;;;;0.38;100.00;99600.94;6282370;28;20069;-76
2023/03/08 02:33:35;;;;;;;10.00;2.35;;;;;;;0.44;100.00;99603.31;6296678;28;20055;-76
2023/03/08 02:36:36;;;;;;;4.40;2.30;;;;;;;0.44;100.00;99605.06;6302965;28;20451;-76
2023/03/08 02:39:39;;;;;;;2.92;2.05;;;;;;;0.47;100.00;99612.75;6303131;28;20052;-76
2023/03/08 02:42:40;;;;;;;2.63;1.83;;;;;;;0.32;100.00;99614.06;6303140;28;20055;-76
2023/03/08 02:45:42;;;;;;;2.80;2.17;;;;;;;0.36;100.00;99604.44;6302840;28;20045;-76
2023/03/08 02:48:44;;;;;;;7.70;3.05;;;;;;;0.25;100.00;99608.22;6302819;28;20049;-76
2023/03/08 02:51:46;;;;;;;4.75;2.30;;;;;;;0.23;100.00;99604.00;6293900;28;20079;-77
2023/03/08 02:54:48;;;;;;;4.28;2.53;;;;;;;0.20;100.00;99606.66;6285794;28;20052;-77
2023/03/08 02:57:50;;;;;;;5.25;2.67;;;;;;;0.22;100.00;99605.69;6285967;28;20048;-76
2023/03/08 03:00:51;;;;;;;4.03;2.85;;;;;;;0.22;100.00;99610.03;6284253;28;20056;-77
2023/03/08 03:03:54;;;;;;;3.65;2.58;;;;;;;0.18;100.00;99591.22;6302762;28;20049;-76
2023/03/08 03:06:55;;;;;;;3.58;1.83;;;;;;;0.24;100.00;99597.94;6302047;28;20055;-77
2023/03/08 03:09:58;;;;;;;6.75;1.80;;;;;;;0.20;100.00;99594.59;6302376;28;20067;-77
2023/03/08 03:13:00;;;;;;;4.00;2.10;;;;;;;0.23;100.00;99597.09;6302378;28;20048;-77
2023/03/08 03:16:05;;;;;;;2.80;1.67;;;;;;;0.30;100.00;99595.16;6302053;28;20349;-76
2023/03/08 03:19:07;;;;;;;3.42;1.85;;;;;;;0.30;100.00;99604.66;6302198;28;20051;-76
2023/03/08 03:22:08;;;;;;;4.65;3.20;;;;;;;0.37;100.00;99604.41;6302157;28;20051;-76
2023/03/08 03:25:11;;;;;;;5.97;2.53;;;;;;;0.34;100.00;99598.50;6301967;28;20044;-76
2023/03/08 03:28:12;;;;;;;4.82;2.03;;;;;;;0.30;100.00;99599.47;6301821;28;20395;-76
2023/03/08 03:31:15;;;;;;;11.02;1.98;;;;;;;0.30;100.00;99600.31;6300236;28;20044;-76
2023/03/08 03:34:17;;;;;;;4.15;2.35;;;;;;;0.28;100.00;99601.28;6301993;28;20044;-75
2023/03/08 03:37:18;;;;;;;3.22;2.25;;;;;;;0.25;100.00;99600.47;6279407;28;20048;-77
2023/03/08 03:40:21;;;;;;;6.35;2.70;;;;;;;0.26;100.00;99601.28;6294266;28;20052;-76
2023/03/08 03:43:23;;;;;;;4.05;2.38;;;;;;;0.28;100.00;99596.09;6289049;28;20044;-76
2023/03/08 03:46:24;;;;;;;4.35;2.20;;;;;;;0.31;100.00;99607.16;6301439;28;20150;-76
2023/03/08 03:49:25;;;;;;;4.03;2.40;;;;;;;0.24;100.00;99605.69;6301258;28;20437;-76
2023/03/08 03:52:27;;;;;;;4.00;2.20;;;;;;;0.20;100.00;99606.66;6301347;28;20044;-75
2023/03/08 03:55:29;;;;;;;3.20;2.55;;;;;;;0.13;100.00;99602.53;6301210;28;20049;-76
2023/03/08 03:58:31;;;;;;;4.75;2.38;;;;;;;0.20;100.00;99604.91;6300972;28;20067;-76
2023/03/08 04:01:32;;;;;;;9.57;3.38;;;;;;;0.16;100.00;99603.31;6293454;28;20052;-76
2023/03/08 04:04:34;;;;;;;3.65;2.60;;;;;;;0.25;100.00;99609.94;6300926;28;20053;-76
2023/03/08 04:07:35;;;;;;;5.82;3.28;;;;;;;0.27;100.00;99607.31;6300922;28;20045;-76
2023/03/08 04:10:38;;;;;;;5.18;3.03;;;;;;;0.18;100.00;99614.47;6294918;28;20352;-76
2023/03/08 04:13:39;;;;;;;8.60;2.75;;;;;;;0.22;100.00;99620.34;6288018;28;20060;-76
2023/03/08 04:16:41;;;;;;;6.97;3.45;;;;;;;0.29;100.00;99611.56;6282207;28;20045;-76
2023/03/08 04:19:42;;;;;;;4.13;2.22;;;;;;;0.36;100.00;99605.28;6281201;28;20055;-76
2023/03/08 04:22:44;;;;;;;4.13;2.40;;;;;;;0.29;100.00;99611.56;6295077;28;20056;-75
2023/03/08 04:25:47;;;;;;;3.92;2.83;;;;;;;0.26;100.00;99606.47;6284902;28;20056;-76
2023/03/08 04:28:49;;;;;;;4.25;2.65;;;;;;;0.16;100.00;99611.06;6288455;28;20049;-75
2023/03/08 04:31:50;;;;;;;6.63;3.15;;;;;;;0.25;100.00;99608.22;6285628;28;20049;-76
2023/03/08 04:34:52;;;;;;;6.22;3.05;;;;;;;0.24;100.00;99601.34;6285280;28;20044;-75
2023/03/08 04:37:53;;;;;;;4.50;2.75;;;;;;;0.20;100.00;99604.91;6281101;28;20044;-76
2023/03/08 04:41:04;;;;;;;7.57;3.22;;;;;;;0.19;100.00;99612.72;6281427;28;20048;-76
2023/03/08 04:44:05;;;;;;;5.35;2.97;;;;;;;0.29;100.00;99602.97;6279820;28;20136;-76
2023/03/08 04:47:06;;;;;;;5.90;3.33;;;;;;;0.27;100.00;99615.06;6283197;28;20039;-76
2023/03/08 04:50:09;;;;;;;5.57;3.13;;;;;;;0.28;100.00;99601.28;6269900;28;20052;-76
2023/03/08 04:53:10;;;;;;;5.03;2.80;;;;;;;0.27;100.00;99602.13;6260325;28;20048;-76
2023/03/08 04:56:15;;;;;;;8.75;3.78;;;;;;;0.28;100.00;99594.38;6258545;28;20044;-77
2023/03/08 04:59:16;;;;;;;6.57;2.97;;;;;;;0.28;100.00;99603.84;6268457;28;20055;-76
2023/03/08 05:02:17;;;;;;;6.93;3.38;;;;;;;0.19;100.00;99604.97;6280479;28;20047;-76
2023/03/08 05:05:19;;;;;;;8.93;4.18;;;;;;;0.28;100.00;99588.34;6281014;28;20044;-76
2023/03/08 05:08:21;;;;;;;8.25;3.60;;;;;;;0.33;100.00;99595.06;6280272;28;20052;-76
2023/03/08 05:11:26;;;;;;;8.88;4.15;;;;;;;0.36;100.00;99594.97;6282555;28;20570;-77
2023/03/08 05:14:28;;;;;;;11.02;4.43;;;;;;;0.36;100.00;99594.97;6279596;28;20052;-76
2023/03/08 05:17:29;;;;;;;8.10;4.47;;;;;;;0.38;100.00;99600.94;6257535;28;20045;-76
2023/03/08 05:20:30;;;;;;;8.93;4.60;;;;;;;0.48;100.00;99601.50;6257568;28;20052;-76
2023/03/08 05:23:32;;;;;;;7.38;3.83;;;;;;;0.43;100.00;99590.47;6254818;28;20492;-77
2023/03/08 05:26:35;;;;;;;9.57;4.47;;;;;;;0.29;100.00;99577.97;6257528;28;20036;-76
2023/03/08 05:29:36;;;;;;;6.40;3.40;;;;;;;0.38;100.00;99566.50;6265178;28;20052;-76
2023/03/08 05:32:38;;;;;;;6.88;3.38;;;;;;;0.41;100.00;99564.69;6274720;28;20595;-76
2023/03/08 05:35:39;;;;;;;12.30;4.70;;;;;;;0.40;100.00;99560.38;6280057;28;20049;-76
2023/03/08 05:38:40;;;;;;;7.80;3.17;;;;;;;0.39;100.00;99548.34;6274612;28;20337;-76
2023/03/08 05:41:43;;;;;;;7.22;3.60;;;;;;;0.43;100.00;99549.97;6274940;28;20049;-76
2023/03/08 05:44:45;;;;;;;8.43;4.20;;;;;;;0.45;100.00;99547.31;6282757;28;20072;-76
2023/03/08 05:47:46;;;;;;;5.28;3.45;;;;;;;0.47;100.00;99548.13;6291294;28;20044;-76
2023/03/08 05:50:47;;;;;;;7.20;4.13;;;;;;;0.45;100.00;99545.56;6299385;28;20044;-76
2023/03/08 05:53:49;;;;;;;6.05;3.60;;;;;;;0.38;100.00;99549.25;6300522;28;20348;-76
2023/03/08 05:56:51;;;;;;;4.93;3.00;;;;;;;0.37;100.00;99550.16;6303909;28;20044;-76
2023/03/08 05:59:52;;;;;;;12.15;3.80;;;;;;;0.39;100.00;99544.94;6299756;28;20053;-76
2023/03/08 06:02:54;;;;;;;14.38;3.28;;;;;;;0.38;100.00;99541.50;6304083;28;20048;-76
2023/03/08 06:05:55;;;;;;;6.95;2.85;;;;;;;0.41;100.00;99540.53;6292017;28;20356;-76
2023/03/08 06:08:57;;;;;;;4.93;2.95;;;;;;;0.38;100.00;99540.66;6280019;28;20045;-76
2023/03/08 06:11:59;;;;;;;7.10;3.67;;;;;;;0.47;100.00;99543.81;6295434;28;20445;-76
2023/03/08 06:15:01;;;;;;;6.78;2.90;;;;;;;0.50;100.00;99540.28;6293236;28;20051;-76
2023/03/08 06:18:02;;;;;;;9.35;4.55;;;;;;;0.47;100.00;99538.63;6278577;28;20041;-76
2023/03/08 06:21:05;;;;;;;6.80;3.50;;;;;;;0.30;100.00;99525.38;6287164;28;20053;-76
2023/03/08 06:24:07;;;;;;;8.48;4.03;;;;;;;0.38;100.00;99540.66;6278631;28;20049;-76
2023/03/08 06:27:09;;;;;;;6.03;3.20;;;;;;;0.48;100.00;99534.31;6278598;28;20041;-76
2023/03/08 06:30:12;;;;;;;11.65;4.68;;;;;;;0.51;100.00;99534.22;6296745;28;20357;-76
2023/03/08 06:33:13;;;;;;;6.88;4.28;;;;;;;0.54;100.00;99525.50;6283077;28;20041;-76
2023/03/08 06:36:16;;;;;;;4.82;3.28;;;;;;;0.54;100.00;99520.34;6278121;28;20067;-76
2023/03/08 06:39:18;;;;;;;7.63;3.47;;;;;;;0.53;100.00;99537.59;6278558;28;20057;-76
2023/03/08 06:42:20;;;;;;;9.27;4.22;;;;;;;0.55;100.00;99532.38;6291292;28;20041;-76
2023/03/08 06:45:22;;;;;;;9.27;4.38;;;;;;;0.56;100.00;99540.09;6297876;28;20036;-76
2023/03/08 06:48:23;;;;;;;6.57;3.75;;;;;;;0.58;100.00;99540.88;6299807;28;20052;-76
2023/03/08 06:51:25;;;;;;;10.05;4.30;;;;;;;0.61;100.00;99537.34;6302951;28;20040;-76
2023/03/08 06:54:26;;;;;;;8.05;4.00;;;;;;;0.64;100.00;99543.28;6279890;28;20048;-76
2023/03/08 06:57:29;;;;;;;7.20;3.45;;;;;;;0.67;100.00;99544.91;6284679;28;20047;-76
2023/03/08 07:00:30;;;;;;;7.93;3.33;;;;;;;0.64;100.00;99538.09;6281893;28;20341;-76
2023/03/08 07:03:32;;;;;;;5.75;3.55;;;;;;;0.68;100.00;99526.78;6284146;28;20139;-76
2023/03/08 07:06:34;;;;;;;6.35;3.80;;;;;;;0.69;100.00;99533.63;6286443;28;20080;-77
2023/03/08 07:09:35;;;;;;;6.38;3.45;;;;;;;0.71;100.00;99525.81;6290979;28;20056;-77
2023/03/08 07:12:42;;;;;;;7.03;3.95;;;;;;;0.76;100.00;99523.91;6292701;28;20048;-76
2023/03/08 07:15:43;;;;;;;9.23;3.22;;;;;;;0.80;100.00;99519.50;6285732;28;20097;-76
2023/03/08 07:18:45;;;;;;;3.72;2.50;;;;;;;0.79;100.00;99525.56;6286923;28;20048;-76
2023/03/08 07:21:46;;;;;;;6.30;3.35;;;;;;;0.80;100.00;99516.91;6288069;28;20049;-76
2023/03/08 07:24:48;;;;;;;4.85;2.35;;;;;;;0.73;100.00;99516.28;6286779;28;20055;-76
2023/03/08 07:27:50;;;;;;;6.38;3.30;;;;;;;0.76;100.00;99511.00;6285511;28;20166;-76
2023/03/08 07:30:53;;;;;;;5.47;3.13;;;;;;;0.77;100.00;99507.50;6288636;28;20049;-76
2023/03/08 07:33:54;;;;;;;6.00;3.20;;;;;;;0.79;100.00;99497.13;6292526;28;20421;-76
2023/03/08 07:36:55;;;;;;;6.22;3.28;;;;;;;0.78;100.00;99501.47;6289975;28;20047;-77
2023/03/08 07:39:57;;;;;;;7.85;3.97;;;;;;;0.83;100.00;99509.06;6288804;28;20045;-76
2023/03/08 07:43:00;;;;;;;6.72;3.35;;;;;;;0.88;100.00;99502.00;6283683;28;20439;-76
2023/03/08 07:46:02;;;;;;;6.18;3.13;;;;;;;0.89;100.00;99501.94;6287623;28;20471;-75
2023/03/08 07:49:09;;;;;;;6.80;3.55;;;;;;;0.93;100.00;99497.50;6282999;28;20048;-76
2023/03/08 07:52:10;;;;;;;5.90;3.50;;;;;;;0.87;100.00;99498.56;6286358;28;20045;-76
2023/03/08 07:55:12;;;;;;;8.10;3.05;;;;;;;0.98;100.00;99508.53;6281580;28;20463;-76
2023/03/08 07:58:14;;;;;;;7.70;3.00;;;;;;;1.05;100.00;99504.00;6298823;28;20044;-75
2023/03/08 08:01:16;;;;;;;7.05;4.00;;;;;;;0.99;100.00;99508.47;6285162;28;20448;-76
2023/03/08 08:04:17;;;;;;;5.80;3.88;;;;;;;1.04;100.00;99499.72;6279908;28;20048;-76
2023/03/08 08:07:18;;;;;;;6.03;3.75;;;;;;;1.03;100.00;99506.63;6276086;28;20052;-75
2023/03/08 08:10:20;;;;;;;6.85;3.40;;;;;;;1.09;100.00;99505.56;6277969;28;20068;-76
2023/03/08 08:13:23;;;;;;;6.07;3.83;;;;;;;1.07;100.00;99510.81;6275771;28;20463;-77
2023/03/08 08:16:24;;;;;;;8.57;3.40;;;;;;;1.11;100.00;99507.22;6274200;28;20056;-77
2023/03/08 08:19:26;;;;;;;9.35;4.53;;;;;;;1.16;100.00;99497.53;6283554;28;20072;-77
2023/03/08 08:22:27;;;;;;;7.35;4.00;;;;;;;1.15;100.00;99497.59;6278258;28;20045;-77
2023/03/08 08:25:28;;;;;;;8.40;3.55;;;;;;;1.18;100.00;99494.91;6282793;28;20387;-76
2023/03/08 08:28:31;;;;;;;9.38;4.57;;;;;;;1.24;100.00;99499.88;6292116;28;20045;-77
2023/03/08 08:31:33;;;;;;;8.38;4.03;;;;;;;1.27;100.00;99487.69;6276604;28;20049;-76
2023/03/08 08:34:34;;;;;;;12.68;4.53;;;;;;;1.35;100.00;99497.72;6283853;28;20323;-77
2023/03/08 08:37:36;;;;;;;6.90;4.13;;;;;;;1.29;100.00;99490.19;6275306;28;20461;-76
2023/03/08 08:40:37;;;;;;;8.32;4.53;;;;;;;1.37;100.00;99493.38;6275502;28;20056;-78
2023/03/08 08:43:40;;;;;;;10.38;5.35;;;;;;;1.37;100.00;99484.75;6275320;28;20060;-77
2023/03/08 08:46:41;;;;;;;10.07;4.57;;;;;;;1.41;100.00;99486.31;6291212;28;20441;-77
2023/03/08 08:49:42;;;;;;;7.82;4.53;;;;;;;1.46;100.00;99482.69;6290256;28;20346;-76
2023/03/08 08:52:44;;;;;;;10.48;5.00;;;;;;;1.50;100.00;99475.66;6279930;28;20425;-77
2023/03/08 08:55:45;;;;;;;10.40;4.45;;;;;;;1.53;100.00;99475.50;6275440;28;20053;-77
2023/03/08 08:58:48;;;;;;;10.05;4.40;;;;;;;1.53;100.00;99475.50;6293531;28;20052;-77
2023/03/08 09:01:49;;;;;;;10.05;3.92;;;;;;;1.50;100.00;99476.50;6300440;28;20044;-78
2023/03/08 09:04:51;;;;;;;11.18;5.30;;;;;;;1.46;100.00;99466.31;6300092;28;20048;-78
2023/03/08 09:07:53;;;;;;;11.00;5.70;;;;;;;1.45;100.00;99470.66;6299885;28;20045;-78
2023/03/08 09:10:54;;;;;;;9.80;4.55;;;;;;;1.48;100.00;99457.56;6300218;28;20052;-78
2023/03/08 09:13:57;;;;;;;8.20;4.28;;;;;;;1.57;100.00;99461.56;6300323;28;20044;-78
2023/03/08 09:16:58;;;;;;;8.68;4.45;;;;;;;1.62;100.00;99459.63;6300020;28;20055;-78
2023/03/08 09:20:00;;;;;;;12.10;5.22;;;;;;;1.69;100.00;99447.31;6275314;28;20056;-77
2023/03/08 09:23:01;;;;;;;9.07;4.57;;;;;;;1.63;100.00;99458.72;6275041;28;20044;-77
2023/03/08 09:26:05;;;;;;;8.77;4.82;;;;;;;1.66;100.00;99447.44;6275978;28;20406;-77
2023/03/08 09:29:07;;;;;;;11.82;4.65;;;;;;;1.69;100.00;99448.16;6278257;28;20463;-77
2023/03/08 09:32:09;;;;;;;13.40;5.70;;;;;;;1.71;100.00;99436.00;6280348;28;20055;-77
2023/03/08 09:35:10;;;;;;;7.45;4.22;;;;;;;1.69;100.00;99439.56;6279973;28;20480;-77
2023/03/08 09:38:11;;;;;;;11.32;5.68;;;;;;;1.70;100.00;99434.31;6279867;28;20059;-77
2023/03/08 09:41:27;;;;;;;10.85;5.32;;;;;;;1.74;100.00;99432.44;6279833;28;20076;-77
2023/03/08 09:44:51;;;;;;;9.77;4.38;;;;;;;1.79;100.00;99435.69;6279740;28;20341;-77
2023/03/08 09:48:03;;;;;;;10.07;4.85;;;;;;;1.93;100.00;99424.81;6278835;28;20045;-77
2023/03/08 09:51:10;;;;;;;11.32;5.40;;;;;;;1.96;100.00;99424.69;6292369;28;20060;-76
2023/03/08 09:54:16;;;;;;;14.75;6.20;;;;;;;1.99;100.00;99416.78;6293284;28;20074;-77
2023/03/08 09:57:23;;;;;;;11.20;4.60;;;;;;;2.07;100.00;99406.13;6288313;28;20344;-76
2023/03/08 10:00:30;;;;;;;14.43;5.85;;;;;;;2.09;100.00;99396.53;6293120;28;20037;-76
2023/03/08 10:03:53;;;;;;;13.18;4.90;;;;;;;2.10;100.00;99391.31;6302847;28;20048;-77
2023/03/08 10:07:07;;;;;;;13.55;5.80;;;;;;;2.10;100.00;99399.06;6302066;28;20075;-76
2023/03/08 10:10:20;;;;;;;17.65;5.60;;;;;;;2.08;100.00;99393.09;6302191;28;20049;-76
2023/03/08 10:13:31;;;;;;;13.27;6.38;;;;;;;2.09;100.00;99388.75;6302876;28;20055;-76
2023/03/08 10:16:38;;;;;;;16.02;5.43;;;;;;;2.11;100.00;99390.38;6303639;28;20433;-76
2023/03/08 10:19:45;;;;;;;12.18;4.78;;;;;;;2.12;100.00;99386.03;6303961;28;20045;-76
2023/03/08 10:22:53;;;;;;;12.65;5.53;;;;;;;2.16;100.00;99387.59;6304122;28;20041;-76
2023/03/08 10:25:55;;;;;;;10.35;5.22;;;;;;;2.23;100.00;99376.09;6302881;28;20361;-76
2023/03/08 10:28:56;;;;;;;11.43;4.72;;;;;;;2.21;100.00;99378.72;6303789;28;20459;-76
2023/03/08 10:31:59;;;;;;;17.73;5.63;;;;;;;2.28;100.00;99377.59;6303735;28;20059;-76
2023/03/08 10:35:01;;;;;;;11.80;5.22;;;;;;;2.36;100.00;99368.63;6291511;28;20048;-76
2023/03/08 10:38:03;;;;;;;12.30;5.47;;;;;;;2.38;100.00;99372.03;6278555;28;20045;-76
2023/03/08 10:41:11;;;;;;;9.43;5.15;;;;;;;2.43;100.00;99363.13;6288079;28;20060;-76
2023/03/08 10:44:16;;;;;;;13.80;5.73;;;;;;;2.42;100.00;99358.88;6303513;28;20056;-76
2023/03/08 10:47:21;;;;;;;10.20;5.13;;;;;;;2.47;100.00;99356.91;6303223;28;20607;-76
2023/03/08 10:50:26;;;;;;;11.93;4.88;;;;;;;2.49;100.00;99346.47;6303178;28;20048;-76
2023/03/08 10:53:28;;;;;;;9.32;4.25;;;;;;;2.42;100.00;99348.50;6303458;28;20047;-76
2023/03/08 10:56:37;;;;;;;8.75;3.50;;;;;;;2.37;100.00;99341.81;6302920;28;20589;-76
2023/03/08 10:59:38;;;;;;;7.13;4.13;;;;;;;2.35;100.00;99333.25;6303340;28;20447;-76
2023/03/08 11:02:41;;;;;;;10.15;5.05;;;;;;;2.49;100.00;99338.69;6301325;28;20048;-76
2023/03/08 11:05:52;;;;;;;7.10;3.83;;;;;;;2.48;100.00;99337.00;6303072;28;20048;-76
2023/03/08 11:08:56;;;;;;;9.60;3.83;;;;;;;2.58;100.00;99337.44;6302704;28;20181;-76
2023/03/08 11:12:00;;;;;;;8.35;3.75;;;;;;;2.65;100.00;99333.69;6302669;28;20123;-76
2023/03/08 11:15:01;;;;;;;8.52;4.35;;;;;;;2.73;100.00;99332.47;6302709;28;20045;-76
2023/03/08 11:18:19;;;;;;;8.80;4.28;;;;;;;2.74;100.00;99328.94;6302428;28;20051;-76
2023/03/08 11:21:29;;;;;;;9.13;3.63;;;;;;;2.77;100.00;99322.75;6302745;28;20051;-76
2023/03/08 11:24:40;;;;;;;10.50;5.25;;;;;;;2.87;100.00;99321.47;6302363;28;20044;-76
2023/03/08 11:27:57;;;;;;;7.82;3.80;;;;;;;2.88;100.00;99328.34;6279460;28;20060;-76
2023/03/08 11:31:13;;;;;;;13.35;4.57;;;;;;;2.86;100.00;99322.38;6277782;28;20056;-76
2023/03/08 11:34:30;;;;;;;7.75;4.05;;;;;;;2.94;100.00;99312.47;6277362;28;20049;-76
2023/03/08 11:37:39;;;;;;;6.75;3.38;;;;;;;3.11;100.00;99310.88;6277395;28;20049;-76
2023/03/08 11:40:51;;;;;;;9.30;5.25;;;;;;;3.06;100.00;99303.31;6277188;28;20492;-76
2023/03/08 11:44:27;;;;;;;9.55;4.40;;;;;;;3.17;100.00;99295.00;6277402;28;20053;-76
2023/03/08 11:47:55;;;;;;;9.20;4.38;;;;;;;3.28;100.00;99303.16;6277208;28;20208;-77
2023/03/08 11:51:06;;;;;;;8.32;3.53;;;;;;;3.30;100.00;99302.16;6276138;28;20045;-76
2023/03/08 11:54:16;;;;;;;7.82;3.55;;;;;;;3.36;100.00;99303.66;6276995;28;20053;-76
2023/03/08 11:57:18;;;;;;;10.00;3.90;;;;;;;3.29;100.00;99292.69;6277791;28;20083;-76
2023/03/08 12:00:27;;;;;;;4.93;2.45;;;;;;;3.19;100.00;99288.00;6276876;28;20049;-76
2023/03/08 12:03:32;;;;;;;;;;;;;;;3.18;100.00;99289.78;6277107;28;20373;-76
2023/03/08 12:06:39;;;;;;;6.35;3.30;;;;;;;3.18;100.00;99284.59;6276634;28;19928;-76
2023/03/08 12:09:55;;;;;;;8.02;3.13;;;;;;;3.17;100.00;99284.63;6276338;28;20645;-76
2023/03/08 12:13:02;;;;;;;5.47;2.92;;;;;;;3.31;100.00;99284.81;6276739;28;20049;-76
2023/03/08 12:16:10;;;;;;;5.80;2.58;;;;;;;3.45;100.00;99282.44;6276147;28;20049;-76
2023/03/08 12:19:19;;;;;;;4.05;2.58;;;;;;;3.36;100.00;99285.47;6276542;28;20045;-76
2023/03/08 12:22:32;;;;;;;4.60;2.83;;;;;;;3.38;100.00;99275.00;6276271;28;20056;-76
2023/03/08 12:25:38;;;;;;;7.60;3.50;;;;;;;3.35;100.00;99272.53;6276556;28;20048;-76
2023/03/08 12:28:43;;;;;;;9.65;3.53;;;;;;;3.34;100.00;99274.31;6300638;28;20048;-76
2023/03/08 12:31:46;;;;;;;3.83;2.47;;;;;;;3.46;100.00;99265.09;6300802;28;20364;-76
2023/03/08 12:34:59;;;;;;;6.03;2.20;;;;;;;3.53;100.00;99264.72;6300525;28;20063;-76
2023/03/08 12:38:06;;;;;;;12.40;3.55;;;;;;;3.54;100.00;99256.03;6300698;28;20429;-76
2023/03/08 12:41:22;;;;;;;9.77;3.40;;;;;;;3.58;100.00;99263.66;6300659;28;20137;-76
2023/03/08 12:44:26;;;;;;;6.50;3.05;;;;;;;3.73;100.00;99266.34;6298136;28;20131;-76
2023/03/08 12:47:27;;;;;;;8.95;3.05;;;;;;;3.78;100.00;99261.78;6288509;28;20194;-76
2023/03/08 12:50:30;;;;;;;7.05;3.95;;;;;;;3.85;100.00;99259.69;6282684;28;20060;-76
2023/03/08 12:53:38;;;;;;;6.53;2.75;;;;;;;3.83;100.00;99247.72;6275529;28;20063;-76
2023/03/08 12:56:50;;;;;;;6.05;3.00;;;;;;;3.85;100.00;99248.47;6275722;28;20463;-76
2023/03/08 12:59:57;;;;;;;12.13;4.72;;;;;;;3.87;100.00;99250.09;6275471;28;20048;-76
2023/03/08 13:03:05;;;;;;;15.00;2.95;;;;;;;3.89;100.00;99247.41;6275447;28;20048;-76
2023/03/08 13:06:37;;;;;;;9.50;3.40;;;;;;;3.91;100.00;99249.00;6290010;28;20352;-75
2023/03/08 13:09:49;;;;;;;6.38;3.08;;;;;;;3.89;100.00;99247.41;6300014;28;20372;-76
2023/03/08 13:13:04;;;;;;;4.75;2.70;;;;;;;3.90;100.00;99238.69;6298791;28;20052;-76
2023/03/08 13:16:21;;;;;;;5.63;2.83;;;;;;;3.92;100.00;99229.91;6299952;28;20040;-76
2023/03/08 13:19:26;;;;;;;6.68;3.60;;;;;;;3.93;100.00;99231.56;6300278;28;20045;-76
2023/03/08 13:22:34;;;;;;;59.97;9.15;;;;;;;3.84;100.00;99236.41;6300053;28;20053;-76
2023/03/08 13:26:12;;;;;;;12.82;4.68;;;;;;;3.83;100.00;99245.13;6299958;28;20040;-76
2023/03/08 13:29:16;;;;;;;17.63;3.95;;;;;;;3.74;100.00;99249.84;6299934;28;20048;-76
2023/03/08 13:32:21;;;;;;;7.20;4.13;;;;;;;3.83;100.00;99245.13;6298261;28;20365;-76
2023/03/08 13:35:23;;;;;;;9.52;3.80;;;;;;;3.73;100.00;99247.34;6299796;28;20049;-76
2023/03/08 13:38:28;;;;;;;7.50;4.22;;;;;;;3.71;100.00;99242.19;6285944;28;20052;-76
2023/03/08 13:41:37;;;;;;;9.82;3.90;;;;;;;3.75;100.00;99243.72;6287946;28;20056;-76
2023/03/08 13:44:39;;;;;;;8.52;3.45;;;;;;;3.78;100.00;99253.13;6299199;28;20049;-76
2023/03/08 13:47:40;;;;;;;9.68;4.25;;;;;;;3.79;100.00;99254.81;6284841;28;20049;-76
2023/03/08 13:50:44;;;;;;;11.25;3.95;;;;;;;3.75;100.00;99248.09;6288506;28;20041;-76
2023/03/08 13:53:46;;;;;;;17.55;4.20;;;;;;;3.75;100.00;99242.88;6282235;28;20049;-77
2023/03/08 13:56:52;;;;;;;9.85;3.80;;;;;;;3.71;100.00;99241.34;6283630;28;20499;-76
2023/03/08 13:59:56;;;;;;;11.15;3.88;;;;;;;3.76;100.00;99240.22;6292555;28;20452;-76
2023/03/08 14:02:58;;;;;;;6.82;3.42;;;;;;;3.85;100.00;99244.09;6299399;28;20044;-76
2023/03/08 14:05:59;;;;;;;10.50;4.78;;;;;;;3.90;100.00;99226.53;6299180;28;20052;-76
2023/03/08 14:09:02;;;;;;;13.18;5.43;;;;;;;3.93;100.00;99233.34;6295221;28;20056;-76
2023/03/08 14:12:06;;;;;;;9.18;4.90;;;;;;;3.83;100.00;99240.75;6299417;28;20052;-76
2023/03/08 14:15:17;;;;;;;8.18;3.50;;;;;;;3.76;100.00;99241.97;6300622;28;20352;-76
2023/03/08 14:18:23;;;;;;;6.57;3.10;;;;;;;3.63;100.00;99243.47;6298384;28;20127;-76
2023/03/08 14:21:26;;;;;;;8.40;4.13;;;;;;;3.61;100.00;99235.78;6295341;28;20052;-77
2023/03/08 14:24:31;;;;;;;11.50;3.67;;;;;;;3.60;100.00;99234.09;6303524;28;20048;-77